sensor_id;sensor_type;location;lat;lon;timestamp;pressure;altitude;pressure_sealevel;temperature;humidity
29417;BME280;28421;51.030;4.006;2023-04-28T03:16:11;101024.50;;;10.78;79.69
29417;BME280;28421;51.030;4.006;2023-04-28T03:18:36;101010.56;;;10.74;79.71
29417;BME280;28421;51.030;4.006;2023-04-28T03:21:02;100998.28;;;10.63;80.04
29417;BME280;28421;51.030;4.006;2023-04-28T03:23:28;101007.69;;;10.67;79.55
29417;BME280;28421;51.030;4.006;2023-04-28T03:25:53;101005.66;;;10.78;79.29
29417;BME280;28421;51.030;4.006;2023-04-28T03:28:19;101020.28;;;11.00;79.06
29417;BME280;28421;51.030;4.006;2023-04-28T03:30:45;100976.59;;;10.81;78.89
29417;BME280;28421;51.030;4.006;2023-04-28T03:33:10;100951.22;;;10.67;79.58
29417;BME280;28421;51.030;4.006;2023-04-28T03:35:36;100979.78;;;10.85;79.60
29417;BME280;28421;51.030;4.006;2023-04-28T03:38:01;100955.25;;;10.80;79.56
29417;BME280;28421;51.030;4.006;2023-04-28T03:40:27;100985.97;;;11.02;79.24
29417;BME280;28421;51.030;4.006;2023-04-28T03:43:13;100968.38;;;10.66;80.30
29417;BME280;28421;51.030;4.006;2023-04-28T03:45:45;100966.88;;;10.48;80.94
29417;BME280;28421;51.030;4.006;2023-04-28T03:48:11;100990.91;;;10.25;82.47
29417;BME280;28421;51.030;4.006;2023-04-28T03:50:36;100985.19;;;10.44;82.67
29417;BME280;28421;51.030;4.006;2023-04-28T03:53:02;100960.47;;;10.49;82.20
29417;BME280;28421;51.030;4.006;2023-04-28T03:55:27;101002.97;;;10.86;81.72
29417;BME280;28421;51.030;4.006;2023-04-28T03:57:53;100973.56;;;10.84;81.55
29417;BME280;28421;51.030;4.006;2023-04-28T04:00:19;100966.16;;;10.78;81.78
29417;BME280;28421;51.030;4.006;2023-04-28T04:02:46;100933.44;;;10.50;81.83
29417;BME280;28421;51.030;4.006;2023-04-28T04:05:12;100999.75;;;10.99;81.68
29417;BME280;28421;51.030;4.006;2023-04-28T04:07:37;100946.16;;;10.81;81.53
29417;BME280;28421;51.030;4.006;2023-04-28T04:10:04;100965.16;;;10.79;81.57
29417;BME280;28421;51.030;4.006;2023-04-28T04:12:31;100936.91;;;10.83;81.72
29417;BME280;28421;51.030;4.006;2023-04-28T04:14:57;100907.41;;;10.26;82.98
29417;BME280;28421;51.030;4.006;2023-04-28T04:17:23;100944.16;;;10.09;86.28
29417;BME280;28421;51.030;4.006;2023-04-28T04:19:48;100952.59;;;10.55;85.82
29417;BME280;28421;51.030;4.006;2023-04-28T04:22:14;100947.69;;;10.75;84.30
29417;BME280;28421;51.030;4.006;2023-04-28T04:24:40;100939.81;;;10.57;83.65
29417;BME280;28421;51.030;4.006;2023-04-28T04:27:05;100942.47;;;10.74;83.75
29417;BME280;28421;51.030;4.006;2023-04-28T04:29:35;100961.25;;;10.98;83.24
29417;BME280;28421;51.030;4.006;2023-04-28T04:32:05;100948.72;;;10.58;84.57
29417;BME280;28421;51.030;4.006;2023-04-28T04:34:31;100975.91;;;10.95;83.82
29417;BME280;28421;51.030;4.006;2023-04-28T04:36:57;100964.75;;;11.07;83.38
29417;BME280;28421;51.030;4.006;2023-04-28T04:39:23;100973.31;;;11.10;83.70
29417;BME280;28421;51.030;4.006;2023-04-28T04:41:48;100950.78;;;11.11;82.96
29417;BME280;28421;51.030;4.006;2023-04-28T04:44:33;100971.75;;;11.32;82.62
29417;BME280;28421;51.030;4.006;2023-04-28T04:46:59;100927.06;;;11.15;82.05
29417;BME280;28421;51.030;4.006;2023-04-28T04:49:25;100931.72;;;11.29;81.87
29417;BME280;28421;51.030;4.006;2023-04-28T04:51:50;100942.75;;;11.42;81.73
29417;BME280;28421;51.030;4.006;2023-04-28T04:54:16;100933.41;;;11.30;81.42
29417;BME280;28421;51.030;4.006;2023-04-28T04:56:43;100954.31;;;11.20;81.86
29417;BME280;28421;51.030;4.006;2023-04-28T04:59:10;100956.44;;;11.33;82.10
29417;BME280;28421;51.030;4.006;2023-04-28T05:02:02;100911.31;;;11.04;81.93
29417;BME280;28421;51.030;4.006;2023-04-28T05:04:27;100920.88;;;11.06;82.28
29417;BME280;28421;51.030;4.006;2023-04-28T05:06:53;100954.06;;;11.38;82.18
29417;BME280;28421;51.030;4.006;2023-04-28T05:09:19;100967.19;;;11.41;82.36
29417;BME280;28421;51.030;4.006;2023-04-28T05:11:44;100972.00;;;11.54;82.09
29417;BME280;28421;51.030;4.006;2023-04-28T05:14:10;100979.66;;;11.34;83.64
29417;BME280;28421;51.030;4.006;2023-04-28T05:16:38;100970.88;;;11.40;83.17
29417;BME280;28421;51.030;4.006;2023-04-28T05:19:15;100956.41;;;11.41;82.48
29417;BME280;28421;51.030;4.006;2023-04-28T05:21:42;100983.63;;;11.54;82.56
29417;BME280;28421;51.030;4.006;2023-04-28T05:24:07;100965.78;;;10.98;85.57
29417;BME280;28421;51.030;4.006;2023-04-28T05:26:35;100964.69;;;11.31;84.94
29417;BME280;28421;51.030;4.006;2023-04-28T05:29:04;100978.94;;;11.40;85.19
29417;BME280;28421;51.030;4.006;2023-04-28T05:31:30;100962.09;;;11.46;84.79
29417;BME280;28421;51.030;4.006;2023-04-28T05:33:56;100959.53;;;11.53;84.17
29417;BME280;28421;51.030;4.006;2023-04-28T05:36:23;100951.44;;;11.53;84.31
29417;BME280;28421;51.030;4.006;2023-04-28T05:38:49;100968.06;;;11.64;84.31
29417;BME280;28421;51.030;4.006;2023-04-28T05:41:15;100957.63;;;11.69;84.64
29417;BME280;28421;51.030;4.006;2023-04-28T05:43:40;100967.81;;;11.90;84.56
29417;BME280;28421;51.030;4.006;2023-04-28T05:46:06;100986.38;;;12.08;84.19
29417;BME280;28421;51.030;4.006;2023-04-28T05:48:32;100986.25;;;12.25;84.09
29417;BME280;28421;51.030;4.006;2023-04-28T05:50:58;100978.53;;;12.22;83.36
29417;BME280;28421;51.030;4.006;2023-04-28T05:53:24;100995.06;;;12.18;83.75
29417;BME280;28421;51.030;4.006;2023-04-28T05:55:50;100964.38;;;11.65;86.80
29417;BME280;28421;51.030;4.006;2023-04-28T05:58:16;100962.28;;;11.84;86.49
29417;BME280;28421;51.030;4.006;2023-04-28T06:00:42;100973.16;;;11.99;86.09
29417;BME280;28421;51.030;4.006;2023-04-28T06:03:07;100968.22;;;12.25;85.64
29417;BME280;28421;51.030;4.006;2023-04-28T06:05:36;100969.97;;;12.41;84.74
29417;BME280;28421;51.030;4.006;2023-04-28T06:08:01;100968.59;;;12.60;84.56
29417;BME280;28421;51.030;4.006;2023-04-28T06:10:29;100988.50;;;12.82;84.84
29417;BME280;28421;51.030;4.006;2023-04-28T06:12:55;100980.50;;;13.03;84.84
29417;BME280;28421;51.030;4.006;2023-04-28T06:15:20;100969.34;;;13.06;84.20
29417;BME280;28421;51.030;4.006;2023-04-28T06:17:46;100981.34;;;13.18;84.15
29417;BME280;28421;51.030;4.006;2023-04-28T06:20:13;100975.69;;;13.43;83.63
29417;BME280;28421;51.030;4.006;2023-04-28T06:22:40;100970.19;;;13.51;83.12
29417;BME280;28421;51.030;4.006;2023-04-28T06:25:06;101005.81;;;13.91;82.56
29417;BME280;28421;51.030;4.006;2023-04-28T06:27:37;101007.63;;;14.05;81.91
29417;BME280;28421;51.030;4.006;2023-04-28T06:30:03;100979.72;;;14.20;81.83
29417;BME280;28421;51.030;4.006;2023-04-28T06:32:29;100997.84;;;14.47;81.23
29417;BME280;28421;51.030;4.006;2023-04-28T06:34:54;101002.75;;;14.52;81.23
29417;BME280;28421;51.030;4.006;2023-04-28T06:37:20;100983.97;;;14.50;81.29
29417;BME280;28421;51.030;4.006;2023-04-28T06:39:46;100994.53;;;14.66;80.94
29417;BME280;28421;51.030;4.006;2023-04-28T06:42:12;100975.84;;;14.29;82.31
29417;BME280;28421;51.030;4.006;2023-04-28T06:44:41;100992.53;;;14.54;82.57
29417;BME280;28421;51.030;4.006;2023-04-28T06:47:08;100988.97;;;14.10;86.47
29417;BME280;28421;51.030;4.006;2023-04-28T06:49:37;100984.75;;;14.23;86.19
29417;BME280;28421;51.030;4.006;2023-04-28T06:52:02;101001.69;;;14.53;85.63
29417;BME280;28421;51.030;4.006;2023-04-28T06:54:29;101002.63;;;14.45;87.11
29417;BME280;28421;51.030;4.006;2023-04-28T06:56:55;100967.94;;;14.27;88.54
29417;BME280;28421;51.030;4.006;2023-04-28T06:59:23;100970.81;;;14.26;88.72
29417;BME280;28421;51.030;4.006;2023-04-28T07:01:48;100967.84;;;14.21;89.71
29417;BME280;28421;51.030;4.006;2023-04-28T07:04:13;100981.69;;;14.11;91.21
29417;BME280;28421;51.030;4.006;2023-04-28T07:06:39;100979.97;;;14.25;90.69
29417;BME280;28421;51.030;4.006;2023-04-28T07:09:04;100989.06;;;14.60;88.84
29417;BME280;28421;51.030;4.006;2023-04-28T07:11:31;101001.97;;;14.43;89.82
29417;BME280;28421;51.030;4.006;2023-04-28T07:13:57;100983.56;;;14.32;90.18
29417;BME280;28421;51.030;4.006;2023-04-28T07:16:24;100952.00;;;14.17;89.79
29417;BME280;28421;51.030;4.006;2023-04-28T07:18:49;100972.50;;;14.27;90.57
29417;BME280;28421;51.030;4.006;2023-04-28T07:21:15;100973.72;;;14.24;90.39
29417;BME280;28421;51.030;4.006;2023-04-28T07:23:40;101008.78;;;14.54;90.15
29417;BME280;28421;51.030;4.006;2023-04-28T07:26:06;100998.44;;;14.42;89.70
29417;BME280;28421;51.030;4.006;2023-04-28T07:28:32;101009.47;;;14.62;88.97
29417;BME280;28421;51.030;4.006;2023-04-28T07:30:58;100991.75;;;14.38;89.27
29417;BME280;28421;51.030;4.006;2023-04-28T07:33:23;101033.19;;;14.82;89.01
29417;BME280;28421;51.030;4.006;2023-04-28T07:35:49;100986.75;;;14.57;88.04
29417;BME280;28421;51.030;4.006;2023-04-28T07:38:16;101015.28;;;14.81;87.64
29417;BME280;28421;51.030;4.006;2023-04-28T07:40:42;100998.47;;;14.64;87.59
29417;BME280;28421;51.030;4.006;2023-04-28T07:43:08;101015.19;;;14.31;89.23
29417;BME280;28421;51.030;4.006;2023-04-28T07:45:38;101018.84;;;14.60;87.96
29417;BME280;28421;51.030;4.006;2023-04-28T07:48:03;101004.06;;;14.41;88.62
29417;BME280;28421;51.030;4.006;2023-04-28T07:50:29;101018.94;;;14.73;88.21
29417;BME280;28421;51.030;4.006;2023-04-28T07:52:54;101003.94;;;14.49;87.09
29417;BME280;28421;51.030;4.006;2023-04-28T07:55:20;101004.31;;;14.67;87.02
29417;BME280;28421;51.030;4.006;2023-04-28T07:57:45;100988.34;;;14.51;86.43
29417;BME280;28421;51.030;4.006;2023-04-28T08:00:11;100979.94;;;14.46;87.20
29417;BME280;28421;51.030;4.006;2023-04-28T08:02:37;101034.09;;;14.89;86.23
29417;BME280;28421;51.030;4.006;2023-04-28T08:05:02;100991.38;;;14.63;87.02
29417;BME280;28421;51.030;4.006;2023-04-28T08:07:28;101020.31;;;14.62;87.67
29417;BME280;28421;51.030;4.006;2023-04-28T08:09:53;101005.41;;;14.73;87.28
29417;BME280;28421;51.030;4.006;2023-04-28T08:12:19;100994.00;;;14.78;86.78
29417;BME280;28421;51.030;4.006;2023-04-28T08:14:46;101007.41;;;14.86;86.11
29417;BME280;28421;51.030;4.006;2023-04-28T08:17:12;101006.13;;;14.82;86.29
29417;BME280;28421;51.030;4.006;2023-04-28T08:19:38;101030.03;;;15.06;85.29
29417;BME280;28421;51.030;4.006;2023-04-28T08:22:04;101028.09;;;15.00;86.48
29417;BME280;28421;51.030;4.006;2023-04-28T08:24:32;100996.81;;;15.26;85.33
29417;BME280;28421;51.030;4.006;2023-04-28T08:27:01;100992.84;;;15.22;84.23
29417;BME280;28421;51.030;4.006;2023-04-28T08:29:30;101013.19;;;15.46;84.01
29417;BME280;28421;51.030;4.006;2023-04-28T08:31:56;101028.09;;;15.28;83.43
29417;BME280;28421;51.030;4.006;2023-04-28T08:34:22;101017.00;;;15.58;83.34
29417;BME280;28421;51.030;4.006;2023-04-28T08:36:47;101004.13;;;15.60;82.16
29417;BME280;28421;51.030;4.006;2023-04-28T08:39:13;100988.69;;;15.60;80.76
29417;BME280;28421;51.030;4.006;2023-04-28T08:41:39;101013.91;;;15.61;81.69
29417;BME280;28421;51.030;4.006;2023-04-28T08:44:10;100978.56;;;15.34;80.39
29417;BME280;28421;51.030;4.006;2023-04-28T08:46:39;101037.44;;;15.95;80.38
29417;BME280;28421;51.030;4.006;2023-04-28T08:49:06;101005.19;;;15.65;80.44
29417;BME280;28421;51.030;4.006;2023-04-28T08:51:37;101017.31;;;15.70;79.38
29417;BME280;28421;51.030;4.006;2023-04-28T08:54:08;101010.38;;;15.60;80.05
29417;BME280;28421;51.030;4.006;2023-04-28T08:56:35;101035.84;;;15.66;79.88
29417;BME280;28421;51.030;4.006;2023-04-28T08:59:02;101003.03;;;15.54;79.39
29417;BME280;28421;51.030;4.006;2023-04-28T09:01:30;101059.59;;;15.64;80.42
29417;BME280;28421;51.030;4.006;2023-04-28T09:03:56;101030.56;;;15.58;80.64
29417;BME280;28421;51.030;4.006;2023-04-28T09:06:24;101034.91;;;15.80;80.04
29417;BME280;28421;51.030;4.006;2023-04-28T09:08:50;101016.94;;;15.79;79.82
29417;BME280;28421;51.030;4.006;2023-04-28T09:11:15;101027.84;;;15.99;79.40
29417;BME280;28421;51.030;4.006;2023-04-28T09:13:41;101023.47;;;15.57;79.91
29417;BME280;28421;51.030;4.006;2023-04-28T09:16:07;101033.03;;;15.87;79.79
29417;BME280;28421;51.030;4.006;2023-04-28T09:18:32;101019.72;;;15.58;80.47
29417;BME280;28421;51.030;4.006;2023-04-28T09:21:04;101052.44;;;15.91;80.01
29417;BME280;28421;51.030;4.006;2023-04-28T09:23:30;101016.09;;;15.72;79.73
29417;BME280;28421;51.030;4.006;2023-04-28T09:26:06;101026.94;;;15.72;79.47
29417;BME280;28421;51.030;4.006;2023-04-28T09:28:32;101056.06;;;16.11;79.65
29417;BME280;28421;51.030;4.006;2023-04-28T09:30:58;101036.13;;;15.43;80.38
29417;BME280;28421;51.030;4.006;2023-04-28T09:33:24;101033.25;;;15.51;80.11
29417;BME280;28421;51.030;4.006;2023-04-28T09:35:50;101045.22;;;15.63;80.02
29417;BME280;28421;51.030;4.006;2023-04-28T09:38:18;101025.34;;;15.22;80.45
29417;BME280;28421;51.030;4.006;2023-04-28T09:43:23;101003.78;;;14.79;81.82
29417;BME280;28421;51.030;4.006;2023-04-28T09:45:48;101020.72;;;15.15;80.86
29417;BME280;28421;51.030;4.006;2023-04-28T09:48:14;101036.38;;;15.55;80.05
29417;BME280;28421;51.030;4.006;2023-04-28T09:50:39;101035.91;;;15.45;80.64
29417;BME280;28421;51.030;4.006;2023-04-28T09:53:07;101029.28;;;15.47;79.52
29417;BME280;28421;51.030;4.006;2023-04-28T09:55:39;101010.38;;;15.60;79.23
29417;BME280;28421;51.030;4.006;2023-04-28T09:58:06;101040.63;;;15.64;78.68
29417;BME280;28421;51.030;4.006;2023-04-28T10:00:33;101051.81;;;15.54;78.75
29417;BME280;28421;51.030;4.006;2023-04-28T10:03:00;101027.66;;;15.25;79.14
29417;BME280;28421;51.030;4.006;2023-04-28T10:05:25;101034.88;;;15.11;80.45
29417;BME280;28421;51.030;4.006;2023-04-28T10:07:51;101035.91;;;15.10;80.24
29417;BME280;28421;51.030;4.006;2023-04-28T10:10:19;101039.34;;;14.97;80.18
29417;BME280;28421;51.030;4.006;2023-04-28T10:12:45;101043.44;;;15.14;80.70
29417;BME280;28421;51.030;4.006;2023-04-28T10:15:12;101049.16;;;15.26;80.25
29417;BME280;28421;51.030;4.006;2023-04-28T10:17:37;101072.97;;;15.09;81.39
29417;BME280;28421;51.030;4.006;2023-04-28T10:20:03;101078.94;;;14.98;82.21
29417;BME280;28421;51.030;4.006;2023-04-28T10:27:41;101052.53;;;15.07;82.60
29417;BME280;28421;51.030;4.006;2023-04-28T10:32:39;101044.16;;;14.74;81.40
29417;BME280;28421;51.030;4.006;2023-04-28T10:38:15;101093.06;;;15.22;81.77
29417;BME280;28421;51.030;4.006;2023-04-28T10:40:43;101049.47;;;14.67;81.92
29417;BME280;28421;51.030;4.006;2023-04-28T10:43:10;101069.47;;;15.15;80.69
29417;BME280;28421;51.030;4.006;2023-04-28T10:56:12;101084.16;;;14.78;80.13
29417;BME280;28421;51.030;4.006;2023-04-28T10:58:39;101079.06;;;14.90;79.82
29417;BME280;28421;51.030;4.006;2023-04-28T11:01:29;101126.44;;;14.79;78.97
29417;BME280;28421;51.030;4.006;2023-04-28T11:04:06;101095.91;;;14.64;78.56
29417;BME280;28421;51.030;4.006;2023-04-28T11:06:42;101128.75;;;14.82;77.74
29417;BME280;28421;51.030;4.006;2023-04-28T11:17:00;101111.03;;;15.01;75.17
29417;BME280;28421;51.030;4.006;2023-04-28T11:19:31;101088.91;;;14.76;75.14
29417;BME280;28421;51.030;4.006;2023-04-28T11:21:59;101101.56;;;14.69;75.52
29417;BME280;28421;51.030;4.006;2023-04-28T11:24:26;101090.81;;;14.97;75.18
29417;BME280;28421;51.030;4.006;2023-04-28T11:26:56;101095.22;;;15.05;74.05
29417;BME280;28421;51.030;4.006;2023-04-28T11:29:38;101091.94;;;14.88;73.69
29417;BME280;28421;51.030;4.006;2023-04-28T11:32:06;101116.00;;;14.98;74.71
29417;BME280;28421;51.030;4.006;2023-04-28T11:34:32;101089.13;;;14.75;74.75
29417;BME280;28421;51.030;4.006;2023-04-28T11:36:58;101115.59;;;15.01;74.85
29417;BME280;28421;51.030;4.006;2023-04-28T11:39:26;101090.06;;;14.88;75.18
29417;BME280;28421;51.030;4.006;2023-04-28T11:41:53;101083.34;;;15.34;73.92
29417;BME280;28421;51.030;4.006;2023-04-28T11:44:20;101121.53;;;15.67;72.94
29417;BME280;28421;51.030;4.006;2023-04-28T11:46:52;101091.78;;;15.46;72.79
29417;BME280;28421;51.030;4.006;2023-04-28T11:49:23;101125.19;;;15.81;73.02
29417;BME280;28421;51.030;4.006;2023-04-28T11:51:50;101095.56;;;15.79;71.95
29417;BME280;28421;51.030;4.006;2023-04-28T11:54:34;101113.66;;;16.07;70.50
29417;BME280;28421;51.030;4.006;2023-04-28T11:57:02;101119.63;;;16.44;70.00
29417;BME280;28421;51.030;4.006;2023-04-28T11:59:33;101097.66;;;16.32;69.83
29417;BME280;28421;51.030;4.006;2023-04-28T12:02:01;101097.91;;;16.50;69.67
29417;BME280;28421;51.030;4.006;2023-04-28T12:07:12;101136.22;;;16.21;70.74
29417;BME280;28421;51.030;4.006;2023-04-28T12:09:48;101084.28;;;15.76;70.58
29417;BME280;28421;51.030;4.006;2023-04-28T12:12:33;101115.03;;;15.96;70.63
29417;BME280;28421;51.030;4.006;2023-04-28T12:15:03;101141.59;;;15.45;72.07
29417;BME280;28421;51.030;4.006;2023-04-28T12:17:33;101138.69;;;15.68;72.56
29417;BME280;28421;51.030;4.006;2023-04-28T12:20:01;101131.56;;;15.66;71.69
29417;BME280;28421;51.030;4.006;2023-04-28T12:22:28;101107.38;;;15.65;71.26
29417;BME280;28421;51.030;4.006;2023-04-28T12:25:11;101108.94;;;15.53;71.57
29417;BME280;28421;51.030;4.006;2023-04-28T12:27:39;101114.97;;;15.55;72.03
29417;BME280;28421;51.030;4.006;2023-04-28T12:32:46;101113.31;;;15.26;71.83
29417;BME280;28421;51.030;4.006;2023-04-28T12:35:12;101130.81;;;15.23;72.20
29417;BME280;28421;51.030;4.006;2023-04-28T12:37:38;101118.47;;;15.21;71.65
29417;BME280;28421;51.030;4.006;2023-04-28T12:40:06;101156.06;;;15.58;71.15
29417;BME280;28421;51.030;4.006;2023-04-28T12:42:31;101125.84;;;15.27;71.02
29417;BME280;28421;51.030;4.006;2023-04-28T12:44:57;101146.94;;;15.10;71.32
29417;BME280;28421;51.030;4.006;2023-04-28T12:47:23;101167.66;;;15.46;71.70
29417;BME280;28421;51.030;4.006;2023-04-28T12:49:48;101154.25;;;15.37;71.61
29417;BME280;28421;51.030;4.006;2023-04-28T12:52:17;101181.56;;;15.64;71.84
29417;BME280;28421;51.030;4.006;2023-04-28T12:54:43;101140.88;;;15.08;71.88
29417;BME280;28421;51.030;4.006;2023-04-28T12:57:18;101127.13;;;15.09;71.73
29417;BME280;28421;51.030;4.006;2023-04-28T12:59:47;101172.91;;;15.26;71.80
29417;BME280;28421;51.030;4.006;2023-04-28T13:02:13;101188.88;;;15.42;72.34
29417;BME280;28421;51.030;4.006;2023-04-28T13:04:40;101170.78;;;15.00;72.62
29417;BME280;28421;51.030;4.006;2023-04-28T13:07:14;101156.66;;;15.26;72.27
29417;BME280;28421;51.030;4.006;2023-04-28T13:09:40;101142.63;;;15.44;71.17
29417;BME280;28421;51.030;4.006;2023-04-28T13:12:07;101168.38;;;15.33;71.77
29417;BME280;28421;51.030;4.006;2023-04-28T13:14:33;101163.69;;;15.20;72.01
29417;BME280;28421;51.030;4.006;2023-04-28T13:16:58;101168.94;;;15.50;72.15
29417;BME280;28421;51.030;4.006;2023-04-28T13:19:24;101191.72;;;15.34;72.16
29417;BME280;28421;51.030;4.006;2023-04-28T13:21:50;101191.81;;;15.19;72.26
29417;BME280;28421;51.030;4.006;2023-04-28T13:24:16;101196.97;;;15.35;71.90
29417;BME280;28421;51.030;4.006;2023-04-28T13:26:41;101184.78;;;15.25;72.71
29417;BME280;28421;51.030;4.006;2023-04-28T13:29:09;101158.44;;;15.40;72.21
29417;BME280;28421;51.030;4.006;2023-04-28T13:31:35;101188.44;;;15.38;72.38
29417;BME280;28421;51.030;4.006;2023-04-28T13:34:01;101217.41;;;15.16;73.51
29417;BME280;28421;51.030;4.006;2023-04-28T13:36:29;101181.75;;;15.34;72.37
29417;BME280;28421;51.030;4.006;2023-04-28T13:38:55;101208.84;;;15.84;71.62
29417;BME280;28421;51.030;4.006;2023-04-28T13:41:21;101151.28;;;15.82;71.66
29417;BME280;28421;51.030;4.006;2023-04-28T13:43:46;101179.69;;;16.34;69.86
29417;BME280;28421;51.030;4.006;2023-04-28T13:46:12;101173.59;;;15.56;70.67
29417;BME280;28421;51.030;4.006;2023-04-28T13:48:38;101192.09;;;16.08;69.44
29417;BME280;28421;51.030;4.006;2023-04-28T13:51:05;101143.22;;;15.67;69.99
29417;BME280;28421;51.030;4.006;2023-04-28T13:53:31;101178.81;;;16.20;68.82
29417;BME280;28421;51.030;4.006;2023-04-28T13:55:57;101169.81;;;16.68;68.53
29417;BME280;28421;51.030;4.006;2023-04-28T13:58:24;101179.81;;;16.12;68.80
29417;BME280;28421;51.030;4.006;2023-04-28T14:00:51;101183.41;;;16.68;68.12
29417;BME280;28421;51.030;4.006;2023-04-28T14:03:16;101176.91;;;16.14;69.68
29417;BME280;28421;51.030;4.006;2023-04-28T14:05:42;101171.81;;;15.98;69.70
29417;BME280;28421;51.030;4.006;2023-04-28T14:08:08;101206.38;;;16.24;70.01
29417;BME280;28421;51.030;4.006;2023-04-28T14:10:34;101175.81;;;16.02;70.95
29417;BME280;28421;51.030;4.006;2023-04-28T14:13:00;101178.63;;;16.22;70.08
29417;BME280;28421;51.030;4.006;2023-04-28T14:15:25;101173.56;;;16.60;69.64
29417;BME280;28421;51.030;4.006;2023-04-28T14:17:51;101161.53;;;16.76;68.57
29417;BME280;28421;51.030;4.006;2023-04-28T14:20:16;101175.09;;;16.82;68.22
29417;BME280;28421;51.030;4.006;2023-04-28T14:22:43;101131.84;;;16.87;67.90
29417;BME280;28421;51.030;4.006;2023-04-28T14:25:08;101178.31;;;17.19;67.69
29417;BME280;28421;51.030;4.006;2023-04-28T14:27:35;101167.88;;;16.48;67.93
29417;BME280;28421;51.030;4.006;2023-04-28T14:30:00;101196.50;;;17.25;68.16
29417;BME280;28421;51.030;4.006;2023-04-28T14:32:26;101172.91;;;16.58;68.28
29417;BME280;28421;51.030;4.006;2023-04-28T14:34:52;101183.16;;;16.62;68.84
29417;BME280;28421;51.030;4.006;2023-04-28T14:37:18;101198.44;;;16.63;69.43
29417;BME280;28421;51.030;4.006;2023-04-28T14:39:43;101181.00;;;16.99;68.66
29417;BME280;28421;51.030;4.006;2023-04-28T14:42:09;101189.38;;;17.11;67.73
29417;BME280;28421;51.030;4.006;2023-04-28T14:44:35;101164.25;;;16.96;67.65
29417;BME280;28421;51.030;4.006;2023-04-28T14:47:01;101176.16;;;16.33;69.79
29417;BME280;28421;51.030;4.006;2023-04-28T14:49:27;101183.50;;;16.39;69.88
29417;BME280;28421;51.030;4.006;2023-04-28T14:51:53;101193.69;;;16.31;70.05
29417;BME280;28421;51.030;4.006;2023-04-28T14:54:19;101177.69;;;15.73;71.03
29417;BME280;28421;51.030;4.006;2023-04-28T14:56:48;101208.81;;;16.12;71.43
29417;BME280;28421;51.030;4.006;2023-04-28T14:59:14;101168.75;;;15.79;71.76
29417;BME280;28421;51.030;4.006;2023-04-28T15:01:40;101193.22;;;15.86;71.78
29417;BME280;28421;51.030;4.006;2023-04-28T15:04:06;101186.28;;;15.77;72.47
29417;BME280;28421;51.030;4.006;2023-04-28T15:06:32;101195.22;;;16.05;72.05
29417;BME280;28421;51.030;4.006;2023-04-28T15:08:58;101180.00;;;15.55;71.23
29417;BME280;28421;51.030;4.006;2023-04-28T15:11:23;101185.28;;;15.63;72.02
29417;BME280;28421;51.030;4.006;2023-04-28T15:13:49;101195.28;;;15.84;71.89
29417;BME280;28421;51.030;4.006;2023-04-28T15:16:14;101186.53;;;15.60;72.26
29417;BME280;28421;51.030;4.006;2023-04-28T15:18:40;101224.09;;;15.63;72.23
29417;BME280;28421;51.030;4.006;2023-04-28T15:21:06;101191.41;;;15.44;72.45
29417;BME280;28421;51.030;4.006;2023-04-28T15:23:32;101171.88;;;15.27;71.83
29417;BME280;28421;51.030;4.006;2023-04-28T15:25:58;101181.16;;;15.17;71.54
29417;BME280;28421;51.030;4.006;2023-04-28T15:28:23;101206.41;;;15.18;72.02
29417;BME280;28421;51.030;4.006;2023-04-28T15:30:49;101203.13;;;15.51;71.02
29417;BME280;28421;51.030;4.006;2023-04-28T15:33:14;101180.78;;;15.21;71.40
29417;BME280;28421;51.030;4.006;2023-04-28T15:35:43;101204.56;;;15.68;71.35
29417;BME280;28421;51.030;4.006;2023-04-28T15:38:09;101191.50;;;15.57;69.95
29417;BME280;28421;51.030;4.006;2023-04-28T15:40:38;101197.50;;;15.74;69.82
29417;BME280;28421;51.030;4.006;2023-04-28T15:43:05;101226.34;;;15.81;69.90
29417;BME280;28421;51.030;4.006;2023-04-28T15:45:31;101203.75;;;15.74;69.09
29417;BME280;28421;51.030;4.006;2023-04-28T15:47:57;101220.38;;;16.27;68.77
29417;BME280;28421;51.030;4.006;2023-04-28T15:50:23;101207.06;;;15.70;68.80
29417;BME280;28421;51.030;4.006;2023-04-28T15:52:48;101218.66;;;15.85;69.12
29417;BME280;28421;51.030;4.006;2023-04-28T15:55:16;101203.69;;;15.89;69.45
29417;BME280;28421;51.030;4.006;2023-04-28T15:57:42;101216.41;;;15.88;69.75
29417;BME280;28421;51.030;4.006;2023-04-28T16:00:08;101202.19;;;15.37;70.40
29417;BME280;28421;51.030;4.006;2023-04-28T16:02:36;101211.34;;;15.36;71.14
29417;BME280;28421;51.030;4.006;2023-04-28T16:05:02;101192.69;;;15.05;71.36
29417;BME280;28421;51.030;4.006;2023-04-28T16:07:30;101237.16;;;15.32;71.38
29417;BME280;28421;51.030;4.006;2023-04-28T16:10:05;101226.63;;;15.44;71.42
29417;BME280;28421;51.030;4.006;2023-04-28T16:12:31;101241.41;;;15.41;71.13
29417;BME280;28421;51.030;4.006;2023-04-28T16:14:58;101225.06;;;15.13;71.27
29417;BME280;28421;51.030;4.006;2023-04-28T16:17:24;101237.31;;;15.09;71.14
29417;BME280;28421;51.030;4.006;2023-04-28T16:19:49;101229.19;;;15.09;71.47
29417;BME280;28421;51.030;4.006;2023-04-28T16:22:15;101260.63;;;15.25;71.28
29417;BME280;28421;51.030;4.006;2023-04-28T16:24:40;101209.66;;;14.92;71.32
29417;BME280;28421;51.030;4.006;2023-04-28T16:27:09;101236.13;;;15.11;71.87
29417;BME280;28421;51.030;4.006;2023-04-28T16:29:34;101235.88;;;15.06;71.43
29417;BME280;28421;51.030;4.006;2023-04-28T16:32:01;101228.91;;;14.82;72.12
29417;BME280;28421;51.030;4.006;2023-04-28T16:34:26;101240.44;;;15.06;71.80
29417;BME280;28421;51.030;4.006;2023-04-28T16:36:52;101246.09;;;14.75;72.75
29417;BME280;28421;51.030;4.006;2023-04-28T16:39:17;101235.66;;;14.72;73.11
29417;BME280;28421;51.030;4.006;2023-04-28T16:41:43;101249.91;;;14.80;73.47